Time;durP1;ratioP1;P1;durP2;ratioP2;P2;SDS_P1;SDS_P2;PMS_P1;PMS_P2;Temp;Humidity;BMP_temperature;BMP_pressure;BME280_temperature;BME280_humidity;BME280_pressure;Samples;Min_cycle;Max_cycle;Signal;HPM_P1;HPM_P2
2024/03/12 00:01:21;;;;;;;7.47;4.35;;;;;;;;;;6174424;23;20332;-88
2024/03/12 00:04:28;;;;;;;7.13;4.30;;;;;;;;;;6175730;23;20222;-88
2024/03/12 00:07:33;;;;;;;6.95;4.03;;;;;;;;;;6176128;23;20164;-89
2024/03/12 00:10:39;;;;;;;8.25;3.88;;;;;;;;;;6177109;23;20164;-89
2024/03/12 00:13:44;;;;;;;9.55;4.63;;;;;;;;;;6176162;23;20706;-88
2024/03/12 00:16:49;;;;;;;9.38;4.50;;;;;;;;;;6176000;23;20168;-88
2024/03/12 00:19:56;;;;;;;9.98;4.15;;;;;;;;;;6177363;23;20172;-88
2024/03/12 00:23:01;;;;;;;10.48;4.38;;;;;;;;;;6195307;23;20227;-90
2024/03/12 00:26:08;;;;;;;9.02;4.43;;;;;;;;;;6177410;23;20168;-88
2024/03/12 00:29:15;;;;;;;9.85;4.18;;;;;;;;;;6176712;23;20187;-88
2024/03/12 00:32:20;;;;;;;6.43;4.18;;;;;;;;;;6193779;23;20147;-87
2024/03/12 00:35:28;;;;;;;8.40;4.18;;;;;;;;;;6176699;23;20203;-88
2024/03/12 00:38:34;;;;;;;8.30;4.22;;;;;;;;;;6178423;23;20168;-89
2024/03/12 00:41:39;;;;;;;7.65;4.72;;;;;;;;;;6175980;23;20275;-87
2024/03/12 00:44:48;;;;;;;13.55;4.65;;;;;;;;;;6177350;23;20172;-88
2024/03/12 00:47:53;;;;;;;7.20;4.22;;;;;;;;;;6175360;23;20172;-88
2024/03/12 00:51:02;;;;;;;7.13;3.95;;;;;;;;;;6175607;23;20180;-87
2024/03/12 00:54:10;;;;;;;8.43;4.57;;;;;;;;;;6174260;23;20274;-89
2024/03/12 00:57:16;;;;;;;9.80;4.57;;;;;;;;;;6176016;23;20168;-88
2024/03/12 01:00:25;;;;;;;9.20;4.78;;;;;;;;;;6178828;23;20159;-88
2024/03/12 01:03:30;;;;;;;8.93;4.55;;;;;;;;;;6195067;23;20176;-88
2024/03/12 01:06:37;;;;;;;9.02;4.22;;;;;;;;;;6177729;23;20627;-89
2024/03/12 01:09:44;;;;;;;10.77;4.35;;;;;;;;;;6195793;23;20167;-90
2024/03/12 01:12:50;;;;;;;7.53;4.03;;;;;;;;;;6176138;23;20548;-87
2024/03/12 01:15:57;;;;;;;9.85;4.65;;;;;;;;;;6177192;23;20169;-88
2024/03/12 01:19:05;;;;;;;13.25;4.72;;;;;;;;;;6175383;23;20228;-89
2024/03/12 01:22:12;;;;;;;9.70;4.47;;;;;;;;;;6175632;23;20168;-88
2024/03/12 01:25:17;;;;;;;8.90;4.43;;;;;;;;;;6177215;23;20171;-87
2024/03/12 01:28:23;;;;;;;9.68;4.57;;;;;;;;;;6176851;23;20262;-89
2024/03/12 01:31:31;;;;;;;10.57;4.70;;;;;;;;;;6177989;23;20283;-88
2024/03/12 01:34:36;;;;;;;10.95;4.30;;;;;;;;;;6175153;23;20196;-89
2024/03/12 01:37:45;;;;;;;8.02;4.13;;;;;;;;;;6174187;23;20175;-86
2024/03/12 01:40:50;;;;;;;9.05;4.20;;;;;;;;;;6177545;23;20160;-90
2024/03/12 01:43:59;;;;;;;7.95;4.50;;;;;;;;;;6195446;23;20229;-88
2024/03/12 01:47:04;;;;;;;8.95;4.13;;;;;;;;;;6178526;23;20505;-88
2024/03/12 01:50:10;;;;;;;7.05;4.00;;;;;;;;;;6178887;23;20217;-89
2024/03/12 01:53:20;;;;;;;6.07;3.90;;;;;;;;;;6178969;23;20171;-86
2024/03/12 01:56:26;;;;;;;9.35;4.22;;;;;;;;;;6179194;23;20260;-87
2024/03/12 01:59:31;;;;;;;8.23;4.32;;;;;;;;;;6178368;23;20607;-88
2024/03/12 02:02:36;;;;;;;9.05;4.13;;;;;;;;;;6178741;23;20211;-88
2024/03/12 02:05:41;;;;;;;8.48;3.83;;;;;;;;;;6179080;23;20172;-89
2024/03/12 02:08:48;;;;;;;8.75;3.78;;;;;;;;;;6177896;23;20303;-87
2024/03/12 02:11:54;;;;;;;8.95;4.30;;;;;;;;;;6177168;23;20164;-88
2024/03/12 02:15:03;;;;;;;9.55;4.28;;;;;;;;;;6180153;23;20247;-88
2024/03/12 02:18:09;;;;;;;5.32;3.78;;;;;;;;;;6180132;23;20168;-87
2024/03/12 02:21:14;;;;;;;9.45;4.43;;;;;;;;;;6178507;23;20180;-89
2024/03/12 02:24:21;;;;;;;8.13;4.55;;;;;;;;;;6174799;23;20176;-86
2024/03/12 02:27:26;;;;;;;8.45;4.20;;;;;;;;;;6175574;23;20288;-89
2024/03/12 02:30:31;;;;;;;8.93;4.25;;;;;;;;;;6176597;23;20164;-89
2024/03/12 02:33:38;;;;;;;8.30;4.03;;;;;;;;;;6176394;23;20280;-87
2024/03/12 02:36:43;;;;;;;8.27;4.05;;;;;;;;;;6177000;23;20265;-89
2024/03/12 02:39:49;;;;;;;8.73;4.47;;;;;;;;;;6176413;23;20160;-88
2024/03/12 02:42:54;;;;;;;9.52;4.10;;;;;;;;;;6178147;23;20172;-88
2024/03/12 02:46:00;;;;;;;10.02;4.38;;;;;;;;;;6178392;23;20179;-88
2024/03/12 02:49:07;;;;;;;7.70;4.13;;;;;;;;;;6179067;23;20172;-88
2024/03/12 02:52:12;;;;;;;10.20;4.90;;;;;;;;;;6178225;23;20241;-88
2024/03/12 02:55:20;;;;;;;7.57;4.10;;;;;;;;;;6178541;23;20190;-88
2024/03/12 02:58:25;;;;;;;7.47;4.00;;;;;;;;;;6177181;23;20652;-88
2024/03/12 03:01:30;;;;;;;11.18;4.57;;;;;;;;;;6198008;23;20294;-88
2024/03/12 03:04:36;;;;;;;8.32;4.38;;;;;;;;;;6179860;23;20244;-89
2024/03/12 03:07:41;;;;;;;8.73;4.65;;;;;;;;;;6178191;23;20607;-88
2024/03/12 03:10:48;;;;;;;10.85;4.25;;;;;;;;;;6179533;23;20164;-88
2024/03/12 03:13:53;;;;;;;8.55;4.40;;;;;;;;;;6178631;23;20164;-87
2024/03/12 03:16:59;;;;;;;12.20;4.30;;;;;;;;;;6178162;23;20171;-89
2024/03/12 03:20:05;;;;;;;9.02;4.55;;;;;;;;;;6179749;23;20180;-87
2024/03/12 03:23:10;;;;;;;7.47;4.47;;;;;;;;;;6178210;23;20243;-88
2024/03/12 03:26:16;;;;;;;11.82;4.65;;;;;;;;;;6177537;23;20168;-86
2024/03/12 03:29:22;;;;;;;10.13;4.88;;;;;;;;;;6177279;23;20192;-88
2024/03/12 03:32:28;;;;;;;9.82;4.53;;;;;;;;;;6179841;23;20150;-88
2024/03/12 03:35:33;;;;;;;11.20;4.07;;;;;;;;;;6177839;23;20276;-88
2024/03/12 03:38:40;;;;;;;10.15;4.63;;;;;;;;;;6179493;23;20168;-88
2024/03/12 03:41:47;;;;;;;8.93;4.30;;;;;;;;;;6178142;23;20199;-89
2024/03/12 03:44:52;;;;;;;9.82;4.28;;;;;;;;;;6176397;23;20214;-89
2024/03/12 03:47:57;;;;;;;10.50;5.05;;;;;;;;;;6177789;23;20164;-88
2024/03/12 03:51:02;;;;;;;9.95;5.25;;;;;;;;;;6178119;23;20286;-88
2024/03/12 03:54:09;;;;;;;12.27;6.32;;;;;;;;;;6177351;23;20167;-88
2024/03/12 03:57:15;;;;;;;10.07;6.00;;;;;;;;;;6178317;23;20167;-88
2024/03/12 04:00:23;;;;;;;11.95;5.57;;;;;;;;;;6178445;23;20163;-87
2024/03/12 04:03:29;;;;;;;14.35;6.78;;;;;;;;;;6177217;23;20172;-88
2024/03/12 04:06:34;;;;;;;12.13;6.03;;;;;;;;;;6195656;23;20176;-88
2024/03/12 04:09:40;;;;;;;9.88;5.13;;;;;;;;;;6178839;23;20171;-87
2024/03/12 04:12:46;;;;;;;10.20;5.85;;;;;;;;;;6179063;23;20777;-86
2024/03/12 04:15:51;;;;;;;10.05;5.38;;;;;;;;;;6179287;23;20195;-89
2024/03/12 04:18:58;;;;;;;9.15;5.05;;;;;;;;;;6178042;23;20215;-86
2024/03/12 04:22:05;;;;;;;7.70;4.65;;;;;;;;;;6178158;23;20192;-87
2024/03/12 04:25:12;;;;;;;11.20;6.25;;;;;;;;;;6180182;23;20167;-89
2024/03/12 04:28:19;;;;;;;7.45;4.72;;;;;;;;;;6178216;23;20468;-87
2024/03/12 04:31:26;;;;;;;9.80;4.50;;;;;;;;;;6179539;23;20611;-89
2024/03/12 04:34:33;;;;;;;9.07;4.38;;;;;;;;;;6178275;23;20163;-87
2024/03/12 04:37:38;;;;;;;7.10;4.15;;;;;;;;;;6179743;23;20175;-88
2024/03/12 04:40:47;;;;;;;9.07;4.20;;;;;;;;;;6180225;23;20501;-88
2024/03/12 04:43:53;;;;;;;8.27;4.53;;;;;;;;;;6179236;23;20168;-87
2024/03/12 04:46:59;;;;;;;8.20;3.88;;;;;;;;;;6177428;23;20197;-88
2024/03/12 04:50:04;;;;;;;7.95;4.25;;;;;;;;;;6177874;23;20172;-88
2024/03/12 04:53:09;;;;;;;11.27;4.18;;;;;;;;;;6175851;23;20292;-88
2024/03/12 04:56:16;;;;;;;6.97;3.90;;;;;;;;;;6177743;23;20302;-90
2024/03/12 04:59:22;;;;;;;8.65;4.53;;;;;;;;;;6177393;23;20199;-88
2024/03/12 05:02:28;;;;;;;9.43;4.28;;;;;;;;;;6176800;23;20867;-88
2024/03/12 05:05:33;;;;;;;6.07;3.65;;;;;;;;;;6178485;23;20246;-87
2024/03/12 05:08:37;;;;;;;8.88;3.70;;;;;;;;;;6178230;23;20230;-88
2024/03/12 05:11:42;;;;;;;6.93;3.50;;;;;;;;;;6179493;23;20163;-88
2024/03/12 05:14:49;;;;;;;7.15;3.45;;;;;;;;;;6179423;23;20168;-87
2024/03/12 05:17:54;;;;;;;5.22;3.40;;;;;;;;;;6177424;23;20215;-88
2024/03/12 05:20:59;;;;;;;7.47;3.50;;;;;;;;;;6180804;23;20159;-88
2024/03/12 05:24:04;;;;;;;5.82;3.50;;;;;;;;;;6200882;23;20171;-87
2024/03/12 05:27:10;;;;;;;8.88;3.75;;;;;;;;;;6180778;23;20588;-86
2024/03/12 05:30:16;;;;;;;8.27;3.33;;;;;;;;;;6182791;23;20180;-88
2024/03/12 05:33:28;;;;;;;5.90;3.40;;;;;;;;;;6180355;23;20239;-88
2024/03/12 05:36:40;;;;;;;9.13;3.65;;;;;;;;;;6198352;23;20196;-88
2024/03/12 05:40:00;;;;;;;7.47;3.35;;;;;;;;;;6189080;23;20152;-86
2024/03/12 05:49:55;;;;;;;7.43;3.83;;;;;;;;;;6185572;23;20184;-87
2024/03/12 05:53:01;;;;;;;13.35;4.25;;;;;;;;;;6183635;23;20272;-87
2024/03/12 05:56:07;;;;;;;6.78;3.55;;;;;;;;;;6190647;23;20187;-88
2024/03/12 05:59:12;;;;;;;4.90;2.90;;;;;;;;;;6187394;23;20148;-89
2024/03/12 06:02:20;;;;;;;4.35;2.95;;;;;;;;;;6188345;23;20164;-89
2024/03/12 06:05:26;;;;;;;6.18;3.17;;;;;;;;;;6187654;23;20226;-87
2024/03/12 06:08:31;;;;;;;5.75;3.17;;;;;;;;;;6183875;23;20239;-86
2024/03/12 06:11:37;;;;;;;7.97;3.53;;;;;;;;;;6183200;23;20261;-87
2024/03/12 06:14:43;;;;;;;6.45;3.58;;;;;;;;;;6182869;23;20201;-89
2024/03/12 06:17:50;;;;;;;7.03;3.25;;;;;;;;;;6183307;23;20548;-87
2024/03/12 06:24:16;;;;;;;7.93;2.85;;;;;;;;;;6182761;23;20199;-88
2024/03/12 06:27:23;;;;;;;6.13;3.40;;;;;;;;;;6184215;23;20219;-87
2024/03/12 06:30:28;;;;;;;4.72;2.85;;;;;;;;;;6184652;23;20164;-89
2024/03/12 06:33:38;;;;;;;10.65;3.33;;;;;;;;;;6186695;23;20184;-89
2024/03/12 06:36:43;;;;;;;8.18;3.10;;;;;;;;;;6187458;23;20522;-90
2024/03/12 06:39:49;;;;;;;4.35;2.55;;;;;;;;;;6165155;23;20250;-88
2024/03/12 06:42:55;;;;;;;7.47;2.88;;;;;;;;;;6181597;23;20243;-90
2024/03/12 06:46:00;;;;;;;7.05;2.95;;;;;;;;;;6183912;23;20173;-88
2024/03/12 06:49:09;;;;;;;7.30;2.78;;;;;;;;;;6181928;23;20216;-89
2024/03/12 06:52:14;;;;;;;4.75;2.97;;;;;;;;;;6179699;23;20251;-88
2024/03/12 06:55:23;;;;;;;8.02;2.88;;;;;;;;;;6183809;23;20223;-89
2024/03/12 06:58:28;;;;;;;11.65;3.22;;;;;;;;;;6181041;23;20172;-89
2024/03/12 07:01:40;;;;;;;9.85;3.30;;;;;;;;;;6182489;23;20171;-86
2024/03/12 07:04:48;;;;;;;6.88;2.67;;;;;;;;;;6181311;23;20172;-89
2024/03/12 07:07:53;;;;;;;8.75;3.25;;;;;;;;;;6179760;23;20172;-89
2024/03/12 07:10:58;;;;;;;5.32;2.90;;;;;;;;;;6180838;23;20235;-89
2024/03/12 07:14:12;;;;;;;5.75;3.00;;;;;;;;;;6179775;23;20167;-89
2024/03/12 07:17:17;;;;;;;11.70;3.30;;;;;;;;;;6182301;23;20199;-89
2024/03/12 07:20:24;;;;;;;15.90;3.45;;;;;;;;;;6182633;23;20168;-90
2024/03/12 07:23:29;;;;;;;6.95;2.88;;;;;;;;;;6180415;23;20167;-90
2024/03/12 07:26:34;;;;;;;6.43;2.97;;;;;;;;;;6180400;23;20671;-89
2024/03/12 07:29:43;;;;;;;8.55;4.05;;;;;;;;;;6181233;23;20196;-89
2024/03/12 07:32:49;;;;;;;7.22;2.60;;;;;;;;;;6183802;23;20172;-87
2024/03/12 07:35:55;;;;;;;8.75;2.67;;;;;;;;;;6183480;23;20646;-88
2024/03/12 07:39:08;;;;;;;4.57;2.72;;;;;;;;;;6185196;23;20187;-88
2024/03/12 07:42:19;;;;;;;8.68;2.95;;;;;;;;;;6181658;23;20167;-89
2024/03/12 07:45:24;;;;;;;5.72;2.90;;;;;;;;;;6176825;23;20172;-91
2024/03/12 07:48:29;;;;;;;8.40;3.35;;;;;;;;;;6179909;23;20163;-90
2024/03/12 07:51:36;;;;;;;6.82;3.25;;;;;;;;;;6180100;23;20155;-89
2024/03/12 07:54:43;;;;;;;8.75;2.97;;;;;;;;;;6179577;23;20167;-89
2024/03/12 07:57:48;;;;;;;12.70;3.15;;;;;;;;;;6180709;23;20171;-89
2024/03/12 08:00:54;;;;;;;7.65;2.70;;;;;;;;;;6180125;23;20168;-90
2024/03/12 08:03:59;;;;;;;6.50;2.97;;;;;;;;;;6181777;23;20160;-90
2024/03/12 08:07:06;;;;;;;6.00;3.17;;;;;;;;;;6182601;23;20191;-89
2024/03/12 08:10:12;;;;;;;6.53;3.20;;;;;;;;;;6181457;23;20192;-91
2024/03/12 08:13:17;;;;;;;5.15;2.65;;;;;;;;;;6182094;23;20172;-90
2024/03/12 08:16:22;;;;;;;6.95;2.95;;;;;;;;;;6182021;23;20247;-91
2024/03/12 08:19:27;;;;;;;7.07;2.92;;;;;;;;;;6180461;23;20168;-89
2024/03/12 08:22:36;;;;;;;5.72;3.08;;;;;;;;;;6180428;23;20238;-89
2024/03/12 08:25:41;;;;;;;9.93;2.90;;;;;;;;;;6180611;23;20187;-91
2024/03/12 08:28:46;;;;;;;8.27;2.97;;;;;;;;;;6180111;23;20199;-91
2024/03/12 08:31:53;;;;;;;5.13;2.92;;;;;;;;;;6200617;23;20623;-90
2024/03/12 08:34:58;;;;;;;10.40;2.90;;;;;;;;;;6181178;23;20527;-90
2024/03/12 08:38:06;;;;;;;4.60;2.45;;;;;;;;;;6184747;23;20179;-89
2024/03/12 08:41:11;;;;;;;12.57;3.10;;;;;;;;;;6181131;23;20172;-91
2024/03/12 08:44:16;;;;;;;6.88;3.30;;;;;;;;;;6180647;23;20167;-87
2024/03/12 08:47:21;;;;;;;9.80;2.88;;;;;;;;;;6178663;23;20167;-89
2024/03/12 08:50:26;;;;;;;7.38;3.33;;;;;;;;;;6179794;23;20176;-91
2024/03/12 08:53:34;;;;;;;7.10;2.88;;;;;;;;;;6179921;23;20485;-89
2024/03/12 08:56:39;;;;;;;8.10;2.85;;;;;;;;;;6180427;23;20195;-90
2024/03/12 08:59:44;;;;;;;7.63;3.13;;;;;;;;;;6181397;23;20562;-89
2024/03/12 09:02:49;;;;;;;6.47;2.63;;;;;;;;;;6178600;23;20163;-90
2024/03/12 09:05:54;;;;;;;5.88;2.40;;;;;;;;;;6181750;23;20226;-88
2024/03/12 09:09:01;;;;;;;6.68;2.88;;;;;;;;;;6178332;23;20172;-90
2024/03/12 09:12:06;;;;;;;4.47;2.30;;;;;;;;;;6180865;23;20147;-88
2024/03/12 09:15:12;;;;;;;7.22;3.42;;;;;;;;;;6178157;23;20228;-90
2024/03/12 09:18:20;;;;;;;4.50;2.70;;;;;;;;;;6178875;23;20172;-90
2024/03/12 09:21:26;;;;;;;5.45;2.63;;;;;;;;;;6177930;23;20173;-90
2024/03/12 09:24:34;;;;;;;5.03;2.45;;;;;;;;;;6179929;23;20223;-90
2024/03/12 09:27:39;;;;;;;5.60;3.00;;;;;;;;;;6180399;23;20172;-89
2024/03/12 09:30:45;;;;;;;6.68;2.63;;;;;;;;;;6177407;23;20175;-90
2024/03/12 09:33:56;;;;;;;8.48;2.72;;;;;;;;;;6178599;23;20156;-88
2024/03/12 09:37:01;;;;;;;6.68;2.40;;;;;;;;;;6177411;23;20547;-89
2024/03/12 09:40:11;;;;;;;6.30;2.80;;;;;;;;;;6178630;23;20172;-89
2024/03/12 09:43:18;;;;;;;9.13;3.00;;;;;;;;;;6197165;23;20187;-90
2024/03/12 09:46:23;;;;;;;8.23;3.05;;;;;;;;;;6176591;23;20175;-90
2024/03/12 09:49:29;;;;;;;6.07;3.25;;;;;;;;;;6181063;23;20152;-91
2024/03/12 09:52:35;;;;;;;9.02;3.03;;;;;;;;;;6178210;23;20168;-89
2024/03/12 09:55:42;;;;;;;6.40;3.25;;;;;;;;;;6179470;23;20168;-91
2024/03/12 09:58:48;;;;;;;9.50;3.30;;;;;;;;;;6177796;23;20283;-89
2024/03/12 10:01:53;;;;;;;10.35;3.47;;;;;;;;;;6178645;23;20164;-92
2024/03/12 10:05:01;;;;;;;7.28;3.45;;;;;;;;;;6185633;23;20249;-88
2024/03/12 10:08:12;;;;;;;13.43;4.00;;;;;;;;;;6179627;23;20226;-91
2024/03/12 10:11:22;;;;;;;8.32;3.50;;;;;;;;;;6181174;23;20237;-88
2024/03/12 10:14:28;;;;;;;9.10;3.67;;;;;;;;;;6177720;23;20235;-88
2024/03/12 10:17:34;;;;;;;7.55;3.83;;;;;;;;;;6178248;23;20206;-91
2024/03/12 10:20:46;;;;;;;9.55;3.65;;;;;;;;;;6179751;23;20159;-90
2024/03/12 10:23:51;;;;;;;8.05;3.50;;;;;;;;;;6180368;23;20152;-89
2024/03/12 10:27:05;;;;;;;8.48;3.72;;;;;;;;;;6179934;23;20243;-88
2024/03/12 10:30:24;;;;;;;8.23;3.40;;;;;;;;;;6178453;23;20512;-88
2024/03/12 10:33:32;;;;;;;8.88;3.67;;;;;;;;;;6181514;23;20231;-89
2024/03/12 10:36:42;;;;;;;7.43;3.63;;;;;;;;;;6181655;23;20192;-90
2024/03/12 10:39:47;;;;;;;10.45;3.50;;;;;;;;;;6177920;23;20489;-90
2024/03/12 10:42:57;;;;;;;15.85;4.70;;;;;;;;;;6182351;23;20176;-89
2024/03/12 10:46:02;;;;;;;5.60;3.15;;;;;;;;;;6180831;23;20175;-90
2024/03/12 10:49:10;;;;;;;7.78;3.20;;;;;;;;;;6179669;23;20184;-90
2024/03/12 10:52:18;;;;;;;9.95;3.10;;;;;;;;;;6179797;23;20540;-89
2024/03/12 10:55:32;;;;;;;6.68;2.97;;;;;;;;;;6190224;23;20219;-89
2024/03/12 10:58:57;;;;;;;6.75;3.20;;;;;;;;;;6189152;23;20608;-88
2024/03/12 11:05:26;;;;;;;7.43;2.97;;;;;;;;;;6189698;23;20168;-87
2024/03/12 11:18:38;;;;;;;13.05;3.38;;;;;;;;;;6182869;23;20219;-87
2024/03/12 11:21:46;;;;;;;4.50;3.08;;;;;;;;;;6176488;23;20167;-87
2024/03/12 11:24:51;;;;;;;4.95;2.80;;;;;;;;;;6178713;23;20172;-89
2024/03/12 11:28:15;;;;;;;6.72;3.25;;;;;;;;;;6178539;23;20172;-87
2024/03/12 11:31:22;;;;;;;4.82;3.03;;;;;;;;;;6179843;23;20159;-88
2024/03/12 11:34:36;;;;;;;4.35;2.60;;;;;;;;;;6198570;23;20167;-88
2024/03/12 11:37:42;;;;;;;6.80;2.60;;;;;;;;;;6179649;23;20188;-89
2024/03/12 11:40:51;;;;;;;9.73;3.30;;;;;;;;;;6176229;23;20171;-89
2024/03/12 11:43:56;;;;;;;5.57;2.90;;;;;;;;;;6176428;23;20171;-88
2024/03/12 11:47:02;;;;;;;5.95;2.85;;;;;;;;;;6177355;23;20172;-87
2024/03/12 11:50:30;;;;;;;5.07;2.67;;;;;;;;;;6176545;23;20245;-88
2024/03/12 11:53:35;;;;;;;5.60;3.10;;;;;;;;;;6176039;23;20619;-89
2024/03/12 11:56:54;;;;;;;5.97;2.88;;;;;;;;;;6177139;23;20265;-90
2024/03/12 12:00:05;;;;;;;5.95;3.25;;;;;;;;;;6178500;23;20168;-88
2024/03/12 12:03:16;;;;;;;7.15;3.00;;;;;;;;;;6196007;23;20215;-89
2024/03/12 12:06:22;;;;;;;6.18;2.60;;;;;;;;;;6176091;23;20167;-88
2024/03/12 12:09:27;;;;;;;5.75;2.78;;;;;;;;;;6175725;23;20166;-90
2024/03/12 12:12:33;;;;;;;7.78;2.58;;;;;;;;;;6177671;23;20597;-86
2024/03/12 12:15:39;;;;;;;4.28;2.40;;;;;;;;;;6178179;23;20290;-88
2024/03/12 12:18:45;;;;;;;3.63;2.35;;;;;;;;;;6195129;23;20219;-88
2024/03/12 12:21:52;;;;;;;5.00;2.40;;;;;;;;;;6178550;23;20160;-88
2024/03/12 12:24:57;;;;;;;8.43;2.30;;;;;;;;;;6175276;23;20147;-88
2024/03/12 12:28:03;;;;;;;3.72;2.25;;;;;;;;;;6178741;23;20180;-87
2024/03/12 12:31:11;;;;;;;5.15;2.50;;;;;;;;;;6179357;23;20163;-88
2024/03/12 12:34:17;;;;;;;7.90;2.67;;;;;;;;;;6179028;23;20171;-86
2024/03/12 12:37:24;;;;;;;6.78;3.10;;;;;;;;;;6178847;23;20219;-88
2024/03/12 12:40:31;;;;;;;6.85;2.30;;;;;;;;;;6175730;23;20227;-88
2024/03/12 12:43:38;;;;;;;10.27;2.67;;;;;;;;;;6178877;23;20171;-89
2024/03/12 12:46:42;;;;;;;5.65;2.40;;;;;;;;;;6176795;23;20659;-88
2024/03/12 12:49:53;;;;;;;5.03;2.60;;;;;;;;;;6178744;23;20167;-88
2024/03/12 12:53:00;;;;;;;5.55;2.80;;;;;;;;;;6175945;23;20148;-88
2024/03/12 12:56:08;;;;;;;6.25;3.03;;;;;;;;;;6176134;23;20176;-87
2024/03/12 12:59:14;;;;;;;5.50;2.33;;;;;;;;;;6175975;23;20176;-87
2024/03/12 13:02:20;;;;;;;5.43;2.03;;;;;;;;;;6177289;23;20163;-88
2024/03/12 13:05:25;;;;;;;4.50;2.50;;;;;;;;;;6177182;23;20175;-88
2024/03/12 13:08:32;;;;;;;7.90;2.40;;;;;;;;;;6152975;23;20164;-87
2024/03/12 13:11:37;;;;;;;3.17;2.38;;;;;;;;;;6178080;23;20172;-88
2024/03/12 13:14:45;;;;;;;7.38;2.70;;;;;;;;;;6179099;23;20185;-87
2024/03/12 13:17:51;;;;;;;5.90;2.90;;;;;;;;;;6179055;23;20194;-88
2024/03/12 13:20:57;;;;;;;5.07;3.20;;;;;;;;;;6196910;23;20697;-87
2024/03/12 13:24:04;;;;;;;6.22;3.28;;;;;;;;;;6179463;23;20167;-88
2024/03/12 13:27:09;;;;;;;5.20;2.80;;;;;;;;;;6179920;23;20195;-88
2024/03/12 13:30:15;;;;;;;7.78;2.97;;;;;;;;;;6177901;23;20214;-87
2024/03/12 13:33:21;;;;;;;4.47;2.60;;;;;;;;;;6181660;23;20167;-90
2024/03/12 13:36:27;;;;;;;8.38;3.20;;;;;;;;;;6180964;23;20215;-89
2024/03/12 13:39:33;;;;;;;5.97;2.70;;;;;;;;;;6180574;23;20187;-87
2024/03/12 13:42:39;;;;;;;6.25;2.72;;;;;;;;;;6179946;23;20167;-89
2024/03/12 13:45:45;;;;;;;8.40;2.42;;;;;;;;;;6180183;23;20180;-86
2024/03/12 13:48:51;;;;;;;4.80;2.20;;;;;;;;;;6196914;23;20164;-89
2024/03/12 13:51:58;;;;;;;6.90;2.70;;;;;;;;;;6179737;23;20219;-90
2024/03/12 13:55:04;;;;;;;7.00;2.72;;;;;;;;;;6179986;23;20183;-90
2024/03/12 13:58:10;;;;;;;7.00;3.42;;;;;;;;;;6181114;23;20192;-89
2024/03/12 14:01:16;;;;;;;7.28;2.90;;;;;;;;;;6195829;23;20507;-87
2024/03/12 14:04:23;;;;;;;4.72;2.33;;;;;;;;;;6179408;23;20176;-89
2024/03/12 14:07:29;;;;;;;9.02;2.78;;;;;;;;;;6178871;23;20247;-87
2024/03/12 14:10:36;;;;;;;6.38;2.60;;;;;;;;;;6178026;23;20497;-89
2024/03/12 14:13:41;;;;;;;3.90;1.75;;;;;;;;;;6179861;23;20172;-88
2024/03/12 14:16:46;;;;;;;4.97;2.08;;;;;;;;;;6179198;23;20199;-89
2024/03/12 14:19:51;;;;;;;4.78;1.88;;;;;;;;;;6178313;23;20152;-90
2024/03/12 14:22:56;;;;;;;2.63;1.67;;;;;;;;;;6178584;23;20168;-89
2024/03/12 14:26:04;;;;;;;3.20;1.90;;;;;;;;;;6179673;23;20769;-89
2024/03/12 14:29:10;;;;;;;6.90;2.33;;;;;;;;;;6181035;23;20195;-90
2024/03/12 14:32:19;;;;;;;4.65;1.85;;;;;;;;;;6179400;23;20155;-90
2024/03/12 14:35:25;;;;;;;6.57;2.13;;;;;;;;;;6180738;23;20177;-90
2024/03/12 14:38:30;;;;;;;5.78;2.33;;;;;;;;;;6180381;23;20199;-89
2024/03/12 14:41:37;;;;;;;8.95;2.22;;;;;;;;;;6179097;23;20219;-89
2024/03/12 14:44:41;;;;;;;4.80;1.98;;;;;;;;;;6178207;23;20168;-89
2024/03/12 14:47:47;;;;;;;4.63;1.95;;;;;;;;;;6179894;23;20647;-88
2024/03/12 14:50:55;;;;;;;4.15;1.80;;;;;;;;;;6180113;23;20242;-89
2024/03/12 14:54:00;;;;;;;4.50;1.77;;;;;;;;;;6180610;23;20466;-90
2024/03/12 14:57:06;;;;;;;3.85;1.90;;;;;;;;;;6180333;23;20168;-91
2024/03/12 15:00:16;;;;;;;3.83;1.90;;;;;;;;;;6182502;23;20164;-89
2024/03/12 15:03:21;;;;;;;4.30;2.13;;;;;;;;;;6183921;23;20156;-91
2024/03/12 15:06:27;;;;;;;4.18;2.13;;;;;;;;;;6181817;23;20178;-90
2024/03/12 15:09:32;;;;;;;5.20;2.08;;;;;;;;;;6182185;23;20175;-90
2024/03/12 15:12:40;;;;;;;5.28;2.30;;;;;;;;;;6182304;23;20172;-90
2024/03/12 15:15:46;;;;;;;3.65;2.15;;;;;;;;;;6184413;23;20215;-89
2024/03/12 15:18:52;;;;;;;3.95;1.95;;;;;;;;;;6179944;23;20195;-90
2024/03/12 15:21:59;;;;;;;6.32;2.20;;;;;;;;;;6181344;23;20167;-91
2024/03/12 15:25:06;;;;;;;3.85;2.28;;;;;;;;;;6179989;23;20167;-88
2024/03/12 15:28:13;;;;;;;5.53;2.17;;;;;;;;;;6180984;23;20204;-89
2024/03/12 15:31:18;;;;;;;6.78;2.47;;;;;;;;;;6179535;23;20159;-87
2024/03/12 15:34:23;;;;;;;6.47;2.58;;;;;;;;;;6198107;23;20171;-89
2024/03/12 15:37:28;;;;;;;4.30;2.45;;;;;;;;;;6181109;23;20175;-89
2024/03/12 15:40:34;;;;;;;3.83;2.60;;;;;;;;;;6184102;23;20175;-90
2024/03/12 15:43:42;;;;;;;4.25;2.40;;;;;;;;;;6181039;23;20171;-90
2024/03/12 15:46:47;;;;;;;4.93;2.75;;;;;;;;;;6182848;23;20152;-89
2024/03/12 15:49:54;;;;;;;2.97;2.45;;;;;;;;;;6185110;23;20167;-89
2024/03/12 15:53:00;;;;;;;4.13;2.80;;;;;;;;;;6179548;23;20168;-90
2024/03/12 15:56:05;;;;;;;4.13;2.08;;;;;;;;;;6181228;23;20254;-90
2024/03/12 15:59:14;;;;;;;6.38;2.50;;;;;;;;;;6182692;23;20275;-89
2024/03/12 16:02:19;;;;;;;3.30;2.28;;;;;;;;;;6181527;23;20168;-88
2024/03/12 16:05:24;;;;;;;4.93;2.42;;;;;;;;;;6182029;23;20222;-89
2024/03/12 16:08:30;;;;;;;6.20;2.58;;;;;;;;;;6181026;23;20179;-89
2024/03/12 16:11:35;;;;;;;5.82;2.65;;;;;;;;;;6182397;23;20212;-90
2024/03/12 16:14:43;;;;;;;6.07;2.60;;;;;;;;;;6179531;23;20172;-88
2024/03/12 16:17:49;;;;;;;4.55;2.28;;;;;;;;;;6182651;23;20195;-88
2024/03/12 16:20:54;;;;;;;3.95;2.40;;;;;;;;;;6186471;23;20192;-91
2024/03/12 16:23:59;;;;;;;4.07;2.58;;;;;;;;;;6181030;23;20168;-87
2024/03/12 16:27:05;;;;;;;11.43;3.15;;;;;;;;;;6181202;23;20164;-90
2024/03/12 16:30:13;;;;;;;4.25;2.45;;;;;;;;;;6181904;23;20195;-86
2024/03/12 16:33:20;;;;;;;4.65;2.58;;;;;;;;;;6182409;23;20189;-88
2024/03/12 16:39:44;;;;;;;6.00;2.60;;;;;;;;;;6179673;23;20210;-87
2024/03/12 16:42:50;;;;;;;5.32;2.70;;;;;;;;;;6180303;23;20175;-89
2024/03/12 16:45:58;;;;;;;5.20;2.30;;;;;;;;;;6180696;23;20172;-90
2024/03/12 16:49:03;;;;;;;5.75;2.63;;;;;;;;;;6182762;23;20176;-88
2024/03/12 16:52:10;;;;;;;12.25;2.90;;;;;;;;;;6183934;23;20167;-89
2024/03/12 16:55:18;;;;;;;10.35;2.80;;;;;;;;;;6188330;23;20175;-88
2024/03/12 16:58:25;;;;;;;6.43;2.72;;;;;;;;;;6192033;23;20232;-88
2024/03/12 17:01:36;;;;;;;13.50;3.05;;;;;;;;;;6191321;23;20220;-88
2024/03/12 17:04:42;;;;;;;7.90;2.60;;;;;;;;;;6192471;23;20218;-89
2024/03/12 17:07:50;;;;;;;6.50;2.72;;;;;;;;;;6190304;23;20191;-89
2024/03/12 17:10:56;;;;;;;4.65;2.58;;;;;;;;;;6185483;23;20213;-88
2024/03/12 17:14:02;;;;;;;8.13;3.00;;;;;;;;;;6188168;23;20159;-88
2024/03/12 17:17:12;;;;;;;5.63;2.83;;;;;;;;;;6189659;23;20167;-91
2024/03/12 17:20:17;;;;;;;5.57;2.90;;;;;;;;;;6208307;23;20172;-86
2024/03/12 17:23:24;;;;;;;4.93;2.58;;;;;;;;;;6186711;23;20175;-87
2024/03/12 17:26:31;;;;;;;5.55;2.85;;;;;;;;;;6187394;23;20159;-88
2024/03/12 17:29:41;;;;;;;9.10;3.38;;;;;;;;;;6190279;23;20171;-86
2024/03/12 17:36:24;;;;;;;5.90;2.70;;;;;;;;;;6191224;23;20156;-88
2024/03/12 17:39:31;;;;;;;6.15;2.85;;;;;;;;;;6187103;23;20654;-89
2024/03/12 17:42:37;;;;;;;4.32;2.78;;;;;;;;;;6186655;23;20205;-88
2024/03/12 17:45:42;;;;;;;5.20;3.30;;;;;;;;;;6186038;23;20171;-87
2024/03/12 17:48:48;;;;;;;5.57;3.50;;;;;;;;;;6180025;23;20231;-88
2024/03/12 17:51:56;;;;;;;6.20;3.33;;;;;;;;;;6181837;23;20200;-90
2024/03/12 17:55:01;;;;;;;6.25;3.40;;;;;;;;;;6183907;23;20168;-90
2024/03/12 17:58:07;;;;;;;6.40;3.53;;;;;;;;;;6184999;23;20250;-88
2024/03/12 18:01:12;;;;;;;7.50;4.38;;;;;;;;;;6183774;23;20195;-89
2024/03/12 18:04:21;;;;;;;12.35;5.38;;;;;;;;;;6181738;23;20167;-87
2024/03/12 18:07:33;;;;;;;7.80;3.78;;;;;;;;;;6180150;23;20159;-88
2024/03/12 18:10:39;;;;;;;4.55;3.25;;;;;;;;;;6180497;23;20220;-88
2024/03/12 18:17:12;;;;;;;5.57;3.17;;;;;;;;;;6187786;23;20179;-87
2024/03/12 18:20:23;;;;;;;7.57;3.70;;;;;;;;;;6186189;23;20195;-88
2024/03/12 18:23:30;;;;;;;5.40;3.60;;;;;;;;;;6186132;23;20192;-90
2024/03/12 18:26:41;;;;;;;6.47;3.50;;;;;;;;;;6182930;23;20172;-87
2024/03/12 18:29:48;;;;;;;6.97;4.18;;;;;;;;;;6179539;23;20191;-88
2024/03/12 18:32:54;;;;;;;7.65;4.03;;;;;;;;;;6181730;23;20255;-88
2024/03/12 18:36:00;;;;;;;7.78;3.85;;;;;;;;;;6182728;23;20164;-89
2024/03/12 18:39:09;;;;;;;7.88;4.47;;;;;;;;;;6182752;23;20195;-87
2024/03/12 18:42:14;;;;;;;7.85;4.00;;;;;;;;;;6184690;23;20191;-89
2024/03/12 18:45:22;;;;;;;7.07;4.00;;;;;;;;;;6183266;23;20156;-90
2024/03/12 18:48:30;;;;;;;10.88;4.43;;;;;;;;;;6180339;23;20184;-89
2024/03/12 18:51:35;;;;;;;11.07;5.38;;;;;;;;;;6181191;23;20164;-89
2024/03/12 18:54:42;;;;;;;11.25;5.03;;;;;;;;;;6182911;23;20167;-88
2024/03/12 18:57:48;;;;;;;12.88;5.90;;;;;;;;;;6183115;23;20167;-86
2024/03/12 19:00:55;;;;;;;13.88;5.78;;;;;;;;;;6180851;23;20619;-88
2024/03/12 19:04:02;;;;;;;11.10;4.82;;;;;;;;;;6199692;23;20164;-91
2024/03/12 19:07:08;;;;;;;11.93;5.45;;;;;;;;;;6179492;23;20168;-88
2024/03/12 19:10:19;;;;;;;8.90;4.47;;;;;;;;;;6180649;23;20176;-89